Time;durP1;ratioP1;P1;durP2;ratioP2;P2;SDS_P1;SDS_P2;PMS_P1;PMS_P2;Temp;Humidity;BMP_temperature;BMP_pressure;BME280_temperature;BME280_humidity;BME280_pressure;Samples;Min_cycle;Max_cycle;Signal;HPM_P1;HPM_P2
2021/09/23 00:05:44;;;;;;;25.70;17.05;;;;;;;9.94;100.00;99324.92;2189524;81;21472;-85
2021/09/23 00:08:44;;;;;;;24.80;17.30;;;;;;;9.93;100.00;99320.18;2191433;81;21071;-84
2021/09/23 00:11:45;;;;;;;24.07;16.48;;;;;;;9.92;100.00;99314.63;2191394;81;20980;-84
2021/09/23 00:14:46;;;;;;;26.45;17.77;;;;;;;9.91;100.00;99316.91;2191553;81;20913;-84
2021/09/23 00:17:49;;;;;;;21.35;15.95;;;;;;;9.88;100.00;99321.66;2191567;81;21522;-84
2021/09/23 00:20:50;;;;;;;27.32;18.30;;;;;;;9.89;100.00;99318.06;2191574;81;21099;-84
2021/09/23 00:23:51;;;;;;;25.95;16.97;;;;;;;9.89;100.00;99311.52;2191410;81;20987;-84
2021/09/23 00:26:52;;;;;;;27.82;17.45;;;;;;;9.89;100.00;99307.60;2191608;81;21000;-85
2021/09/23 00:29:53;;;;;;;27.30;17.57;;;;;;;9.88;100.00;99322.48;2191537;81;21055;-84
2021/09/23 00:32:54;;;;;;;24.40;16.10;;;;;;;9.88;100.00;99318.55;2191551;81;20989;-84
2021/09/23 00:35:55;;;;;;;27.20;18.30;;;;;;;9.86;100.00;99311.83;2191452;81;20991;-85
2021/09/23 00:38:55;;;;;;;22.55;16.93;;;;;;;9.80;100.00;99316.41;2191366;81;21491;-84
2021/09/23 00:41:57;;;;;;;27.93;18.15;;;;;;;9.79;100.00;99311.67;2191532;81;20940;-84
2021/09/23 00:44:58;;;;;;;29.45;17.25;;;;;;;9.76;100.00;99305.92;2191412;81;21041;-84
2021/09/23 00:47:58;;;;;;;21.42;16.00;;;;;;;9.74;100.00;99297.42;2191468;81;20991;-84
2021/09/23 00:50:59;;;;;;;26.60;18.45;;;;;;;9.71;100.00;99291.22;2191498;81;20992;-84
2021/09/23 00:54:00;;;;;;;27.73;17.67;;;;;;;9.63;100.00;99293.31;2191606;81;21556;-84
2021/09/23 00:57:01;;;;;;;24.00;17.50;;;;;;;9.62;100.00;99296.91;2191388;81;21047;-84
2021/09/23 01:00:02;;;;;;;24.43;17.40;;;;;;;9.58;100.00;99298.19;2191607;81;21512;-84
2021/09/23 01:03:02;;;;;;;27.73;17.17;;;;;;;9.48;100.00;99289.17;2191511;81;21048;-84
2021/09/23 01:06:03;;;;;;;24.55;17.50;;;;;;;9.43;100.00;99288.02;2191376;81;21059;-84
2021/09/23 01:09:04;;;;;;;24.55;16.95;;;;;;;9.40;100.00;99291.27;2191388;81;21110;-84
2021/09/23 01:12:05;;;;;;;23.98;16.23;;;;;;;9.38;100.00;99276.72;2191535;81;21567;-84
2021/09/23 01:15:06;;;;;;;26.25;16.07;;;;;;;9.37;100.00;99264.63;2191300;81;20953;-84
2021/09/23 01:18:06;;;;;;;27.70;17.82;;;;;;;9.34;100.00;99264.47;2191600;81;21055;-84
2021/09/23 01:21:07;;;;;;;26.15;17.27;;;;;;;9.31;100.00;99271.30;2191374;81;20976;-84
2021/09/23 01:24:08;;;;;;;28.73;19.15;;;;;;;9.30;100.00;99276.69;2191401;81;21020;-84
2021/09/23 01:27:09;;;;;;;23.80;15.93;;;;;;;9.25;100.00;99282.89;2191390;81;21567;-84
2021/09/23 01:30:10;;;;;;;27.17;17.37;;;;;;;9.22;100.00;99281.39;2191540;81;21005;-84
2021/09/23 01:33:10;;;;;;;24.52;16.57;;;;;;;9.21;100.00;99269.30;2191468;81;21068;-85
2021/09/23 01:36:11;;;;;;;21.97;15.28;;;;;;;9.14;100.00;99265.67;2191431;81;20976;-84
2021/09/23 01:39:12;;;;;;;26.75;17.20;;;;;;;9.10;100.00;99249.51;2191383;81;20956;-84
2021/09/23 01:42:13;;;;;;;29.23;18.23;;;;;;;9.06;100.00;99250.81;2191515;81;21035;-84
2021/09/23 01:45:14;;;;;;;30.55;17.77;;;;;;;9.07;100.00;99239.87;2191391;81;21012;-84
2021/09/23 01:48:14;;;;;;;24.95;16.52;;;;;;;9.08;100.00;99237.09;2191445;81;21008;-84
2021/09/23 01:51:15;;;;;;;22.55;15.53;;;;;;;9.10;100.00;99240.85;2191470;81;21000;-84
2021/09/23 01:54:16;;;;;;;27.75;17.27;;;;;;;9.13;100.00;99236.61;2191501;81;20961;-84
2021/09/23 01:57:17;;;;;;;24.12;17.27;;;;;;;9.10;100.00;99235.14;2191368;81;21102;-84
2021/09/23 02:00:18;;;;;;;26.97;17.25;;;;;;;9.09;100.00;99235.30;2191371;81;21005;-84
2021/09/23 02:03:18;;;;;;;25.45;15.88;;;;;;;9.06;100.00;99235.13;2191249;81;21484;-85
2021/09/23 02:06:19;;;;;;;31.62;18.12;;;;;;;9.04;100.00;99223.19;2185814;81;21012;-84
2021/09/23 02:09:20;;;;;;;26.30;17.65;;;;;;;9.02;100.00;99216.81;2184458;81;21378;-84
2021/09/23 02:12:22;;;;;;;27.90;18.07;;;;;;;8.96;100.00;99213.55;2184441;81;21027;-84
2021/09/23 02:15:23;;;;;;;24.10;17.02;;;;;;;8.95;100.00;99202.74;2184310;81;21020;-84
2021/09/23 02:18:23;;;;;;;29.02;18.40;;;;;;;8.94;100.00;99202.41;2184549;81;20937;-84
2021/09/23 02:21:24;;;;;;;25.25;16.93;;;;;;;8.95;100.00;99193.60;2184284;81;21019;-84
2021/09/23 02:24:25;;;;;;;29.90;19.02;;;;;;;8.96;100.00;99191.80;2184454;81;21468;-84
2021/09/23 02:27:26;;;;;;;26.90;17.52;;;;;;;8.93;100.00;99196.05;2184404;81;21519;-83
2021/09/23 02:30:28;;;;;;;25.68;17.00;;;;;;;8.93;100.00;99202.58;2184369;81;20964;-85
2021/09/23 02:33:29;;;;;;;31.20;18.65;;;;;;;8.90;100.00;99193.76;2184314;81;21080;-85
2021/09/23 02:36:30;;;;;;;25.92;16.95;;;;;;;8.87;100.00;99179.69;2184426;81;20996;-85
2021/09/23 02:39:30;;;;;;;32.93;19.37;;;;;;;8.84;100.00;99183.44;2184781;81;20984;-85
2021/09/23 02:42:31;;;;;;;29.85;19.48;;;;;;;8.86;100.00;99188.02;2184413;81;21007;-84
2021/09/23 02:45:32;;;;;;;30.45;18.37;;;;;;;8.90;100.00;99188.05;2184319;81;21036;-84
2021/09/23 02:52:11;;;;;;;28.80;17.55;;;;;;;8.91;100.00;99173.20;2184767;81;21040;-84
2021/09/23 02:58:50;;;;;;;23.73;17.20;;;;;;;8.96;100.00;99174.38;2184490;81;21138;-85
2021/09/23 03:05:28;;;;;;;28.57;17.32;;;;;;;8.95;100.00;99166.67;2187058;81;21051;-85
2021/09/23 03:08:29;;;;;;;28.60;17.20;;;;;;;8.98;100.00;99172.90;2191458;81;21042;-86
2021/09/23 03:11:30;;;;;;;26.57;17.75;;;;;;;9.03;100.00;99166.70;2191555;81;20975;-86
2021/09/23 03:14:31;;;;;;;28.45;18.20;;;;;;;9.03;100.00;99166.70;2191656;81;21003;-87
2021/09/23 03:17:32;;;;;;;30.45;19.07;;;;;;;9.03;100.00;99177.96;2192184;81;21417;-87
2021/09/23 03:20:32;;;;;;;29.23;18.12;;;;;;;9.06;100.00;99163.79;2192601;81;21377;-87
2021/09/23 03:23:33;;;;;;;29.90;17.62;;;;;;;9.09;100.00;99162.97;2191899;81;21010;-89
2021/09/23 03:26:34;;;;;;;27.50;17.10;;;;;;;9.07;100.00;99164.11;2191621;81;20952;-85
2021/09/23 03:29:35;;;;;;;25.95;17.57;;;;;;;9.04;100.00;99171.76;2191558;81;21541;-86
2021/09/23 03:32:36;;;;;;;26.52;17.40;;;;;;;9.05;100.00;99172.58;2191769;81;20949;-85
2021/09/23 03:35:36;;;;;;;27.93;16.42;;;;;;;9.06;100.00;99178.16;2191610;81;21031;-86
2021/09/23 03:38:37;;;;;;;27.00;17.05;;;;;;;9.06;100.00;99186.81;2191578;81;20983;-86
2021/09/23 03:41:38;;;;;;;25.65;15.50;;;;;;;9.05;100.00;99177.34;2191776;81;21484;-86
2021/09/23 03:44:39;;;;;;;22.17;15.35;;;;;;;9.03;100.00;99175.35;2191685;81;21086;-86
2021/09/23 03:47:40;;;;;;;26.27;16.75;;;;;;;9.02;100.00;99169.80;2191459;81;20945;-85
2021/09/23 03:50:40;;;;;;;27.00;14.87;;;;;;;9.03;100.00;99157.06;2191500;81;21084;-85
2021/09/23 03:53:41;;;;;;;24.20;15.83;;;;;;;9.07;100.00;99147.95;2191418;81;21028;-85
2021/09/23 03:56:42;;;;;;;29.87;17.12;;;;;;;9.09;100.00;99153.02;2191567;81;20952;-85
2021/09/23 03:59:46;;;;;;;29.37;17.92;;;;;;;9.10;100.00;99156.77;2191379;81;21487;-85
2021/09/23 04:02:46;;;;;;;27.87;17.80;;;;;;;9.13;100.00;99138.16;2191527;81;21544;-85
2021/09/23 04:05:47;;;;;;;29.25;16.20;;;;;;;9.16;100.00;99144.88;2191411;81;21052;-85
2021/09/23 04:08:49;;;;;;;28.47;16.50;;;;;;;9.21;100.00;99144.38;2191720;81;21079;-85
2021/09/23 04:11:50;;;;;;;30.68;18.50;;;;;;;9.22;100.00;99137.68;2191856;81;21016;-85
2021/09/23 04:14:51;;;;;;;30.75;17.70;;;;;;;9.25;100.00;99137.38;2192362;81;20984;-87
2021/09/23 04:17:52;;;;;;;34.75;18.90;;;;;;;9.28;100.00;99137.05;2191629;81;20949;-86
2021/09/23 04:20:52;;;;;;;32.70;17.82;;;;;;;9.30;100.00;99129.86;2191563;81;21095;-87
2021/09/23 04:23:53;;;;;;;34.10;18.45;;;;;;;9.36;100.00;99127.92;2191521;81;21043;-85
2021/09/23 04:26:54;;;;;;;32.17;18.55;;;;;;;9.45;100.00;99121.39;2191582;81;21059;-86
2021/09/23 04:29:55;;;;;;;27.13;16.52;;;;;;;9.49;100.00;99130.05;2191518;81;21095;-85
2021/09/23 04:32:57;;;;;;;34.83;18.85;;;;;;;9.56;100.00;99121.07;2191603;81;21456;-87
2021/09/23 04:35:58;;;;;;;32.67;18.37;;;;;;;9.60;100.00;99119.75;2191542;81;21044;-86
2021/09/23 04:38:59;;;;;;;32.55;17.67;;;;;;;9.66;100.00;99105.54;2191596;81;22191;-82
2021/09/23 04:41:59;;;;;;;32.55;18.67;;;;;;;9.68;100.00;99107.50;2191469;81;20919;-82
2021/09/23 04:45:00;;;;;;;31.35;18.00;;;;;;;9.74;100.00;99104.73;2191600;81;21586;-82
2021/09/23 04:48:02;;;;;;;31.77;19.05;;;;;;;9.79;100.00;99105.06;2191467;81;21058;-82
2021/09/23 04:51:02;;;;;;;33.85;19.02;;;;;;;9.82;100.00;99102.60;2191400;81;21080;-82
2021/09/23 04:54:03;;;;;;;30.55;17.40;;;;;;;9.86;100.00;99096.05;2191485;81;20992;-82
2021/09/23 04:57:04;;;;;;;29.12;16.55;;;;;;;9.91;100.00;99090.66;2191478;81;22121;-83
2021/09/23 05:00:05;;;;;;;29.75;18.00;;;;;;;9.90;100.00;99092.13;2191660;81;20999;-83
2021/09/23 05:03:06;;;;;;;29.45;17.57;;;;;;;9.95;100.00;99091.94;2191420;81;20956;-82
2021/09/23 05:06:07;;;;;;;29.85;17.10;;;;;;;10.01;100.00;99090.47;2188249;81;21027;-83
2021/09/23 05:09:08;;;;;;;27.55;17.52;;;;;;;10.07;100.00;99092.92;2184420;81;21060;-82
2021/09/23 05:12:10;;;;;;;27.60;17.67;;;;;;;10.13;100.00;99085.70;2184483;81;20992;-82
2021/09/23 05:15:15;;;;;;;29.00;16.70;;;;;;;10.20;100.00;99087.48;2184675;81;21557;-83
2021/09/23 05:18:13;;;;;;;26.10;15.85;;;;;;;10.25;100.00;99091.77;2183109;81;21472;-82
2021/09/23 05:21:14;;;;;;;24.87;15.55;;;;;;;10.27;100.00;99090.28;2184482;81;20953;-82
2021/09/23 05:24:17;;;;;;;23.98;15.53;;;;;;;10.33;100.00;99086.16;2184455;81;21028;-83
2021/09/23 05:27:18;;;;;;;26.05;16.55;;;;;;;10.38;100.00;99078.13;2184428;81;20965;-82
2021/09/23 05:30:19;;;;;;;27.42;16.23;;;;;;;10.44;100.00;99074.84;2184341;81;21523;-82
2021/09/23 05:33:19;;;;;;;27.05;15.68;;;;;;;10.49;100.00;99070.39;2184281;81;20926;-82
2021/09/23 05:36:20;;;;;;;30.72;18.27;;;;;;;10.53;100.00;99073.02;2184350;81;20976;-83
2021/09/23 05:39:21;;;;;;;23.32;15.05;;;;;;;10.54;100.00;99083.80;2184514;81;21024;-82
2021/09/23 05:42:22;;;;;;;26.17;15.18;;;;;;;10.55;100.00;99080.20;2184290;81;20941;-84
2021/09/23 05:45:23;;;;;;;24.52;15.48;;;;;;;10.60;100.00;99074.44;2184310;81;21032;-83
2021/09/23 05:48:24;;;;;;;24.90;14.85;;;;;;;10.64;100.00;99071.32;2184120;81;21040;-83
2021/09/23 05:51:25;;;;;;;24.72;13.93;;;;;;;10.69;100.00;99076.03;2184237;81;21008;-84
2021/09/23 05:54:25;;;;;;;25.88;15.85;;;;;;;10.72;100.00;99066.54;2184442;81;20964;-83
2021/09/23 05:57:33;;;;;;;23.75;15.95;;;;;;;10.75;100.00;99070.11;2184217;81;20984;-86
2021/09/23 06:00:29;;;;;;;25.75;16.20;;;;;;;10.82;100.00;99072.38;2183273;81;21011;-83
2021/09/23 06:03:30;;;;;;;26.00;14.53;;;;;;;10.86;100.00;99063.67;2184597;81;20956;-84
2021/09/23 06:06:30;;;;;;;21.52;14.60;;;;;;;10.92;100.00;99062.98;2187564;81;21106;-83
2021/09/23 06:09:31;;;;;;;23.50;14.65;;;;;;;10.94;100.00;99061.81;2191535;81;21103;-83
2021/09/23 06:12:32;;;;;;;28.67;14.75;;;;;;;10.95;100.00;99059.52;2191596;81;20961;-83
2021/09/23 06:15:33;;;;;;;22.58;15.23;;;;;;;10.99;100.00;99059.51;2191413;81;20968;-83
2021/09/23 06:18:34;;;;;;;23.67;15.25;;;;;;;11.07;100.00;99067.81;2191261;81;20928;-83
2021/09/23 06:21:34;;;;;;;24.87;15.18;;;;;;;11.14;100.00;99062.17;2191324;81;21059;-85
2021/09/23 06:24:35;;;;;;;22.67;14.30;;;;;;;11.20;100.00;99054.93;2191326;81;21011;-84
2021/09/23 06:27:36;;;;;;;22.48;13.50;;;;;;;11.30;100.00;99053.38;2191250;81;20965;-84
2021/09/23 06:30:37;;;;;;;24.43;14.07;;;;;;;11.34;100.00;99056.80;2191228;81;21502;-84
2021/09/23 06:33:38;;;;;;;21.75;14.60;;;;;;;11.45;100.00;99050.33;2191330;81;21007;-84
2021/09/23 06:36:39;;;;;;;21.75;13.62;;;;;;;11.56;100.00;99045.95;2191456;81;21087;-84
2021/09/23 06:39:40;;;;;;;26.10;14.90;;;;;;;11.68;100.00;99047.14;2191319;81;21028;-84
2021/09/23 06:42:41;;;;;;;19.45;13.38;;;;;;;11.80;100.00;99036.27;2191415;81;21047;-84
2021/09/23 06:45:42;;;;;;;20.52;14.18;;;;;;;11.89;100.00;99032.08;2191340;81;21504;-85
2021/09/23 06:48:43;;;;;;;19.20;12.18;;;;;;;11.92;100.00;99026.45;2191478;81;21026;-83
2021/09/23 06:51:44;;;;;;;19.82;12.60;;;;;;;12.01;100.00;99035.05;2191643;81;21028;-84
2021/09/23 06:54:45;;;;;;;18.42;12.68;;;;;;;12.05;100.00;99032.37;2191528;81;20995;-84
2021/09/23 06:57:46;;;;;;;20.45;13.38;;;;;;;12.10;100.00;99030.03;2191657;81;21071;-85
2021/09/23 07:00:47;;;;;;;16.77;12.82;;;;;;;12.19;100.00;99028.95;2191714;81;21626;-85
2021/09/23 07:03:49;;;;;;;19.37;12.65;;;;;;;12.29;100.00;99022.10;2191498;81;20976;-84
2021/09/23 07:06:50;;;;;;;16.00;11.83;;;;;;;12.40;100.00;99023.44;2191461;81;21068;-84
2021/09/23 07:09:51;;;;;;;19.25;12.15;;;;;;;12.56;100.00;99025.86;2191543;81;21514;-85
2021/09/23 07:12:52;;;;;;;18.40;12.55;;;;;;;12.79;100.00;99023.07;2191435;81;21006;-84
2021/09/23 07:15:53;;;;;;;16.45;11.18;;;;;;;13.00;100.00;99019.17;2191679;81;21093;-84
2021/09/23 07:18:54;;;;;;;20.95;13.13;;;;;;;13.13;100.00;99017.66;2191493;81;21060;-85
2021/09/23 07:21:55;;;;;;;16.97;11.55;;;;;;;13.15;100.00;99001.99;2191529;81;20968;-85
2021/09/23 07:24:56;;;;;;;19.50;12.65;;;;;;;13.20;100.00;99000.16;2191555;81;21056;-85
2021/09/23 07:27:57;;;;;;;18.98;11.75;;;;;;;13.29;100.00;99005.59;2191518;81;21103;-84
2021/09/23 07:30:58;;;;;;;19.70;12.03;;;;;;;13.40;100.00;99006.39;2191624;81;21064;-85
2021/09/23 07:33:59;;;;;;;18.37;12.40;;;;;;;13.53;100.00;99013.56;2191405;81;21039;-84
2021/09/23 07:37:00;;;;;;;19.40;12.85;;;;;;;13.66;100.00;99009.73;2191376;81;21217;-85
2021/09/23 07:40:01;;;;;;;22.85;13.38;;;;;;;13.83;100.00;99001.84;2191723;81;20988;-93
2021/09/23 07:43:02;;;;;;;18.42;12.30;;;;;;;14.05;100.00;99003.88;2163880;81;21523;-94
2021/09/23 07:46:07;;;;;;;18.75;12.60;;;;;;;14.33;100.00;99010.91;2192894;81;20964;-92
2021/09/23 07:49:08;;;;;;;19.42;12.10;;;;;;;14.49;100.00;99002.19;2192394;81;20995;-87
2021/09/23 07:52:09;;;;;;;18.92;11.78;;;;;;;14.62;100.00;99004.04;2191687;81;21535;-89
2021/09/23 07:55:10;;;;;;;20.62;12.53;;;;;;;14.68;100.00;99005.08;2191326;81;20925;-88
2021/09/23 07:58:11;;;;;;;21.77;12.85;;;;;;;14.71;100.00;98994.94;2191346;81;21068;-92
2021/09/23 08:01:12;;;;;;;20.77;12.45;;;;;;;14.82;100.00;98998.84;2191564;81;21056;-93
2021/09/23 08:04:13;;;;;;;22.42;12.45;;;;;;;14.95;100.00;98990.14;2163668;81;21055;-91
2021/09/23 08:07:17;;;;;;;21.57;11.85;;;;;;;15.04;100.00;98992.89;2191371;81;21576;-86
2021/09/23 08:10:17;;;;;;;22.07;11.48;;;;;;;15.10;100.00;98988.14;2191447;81;21095;-87
2021/09/23 08:13:19;;;;;;;22.40;11.33;;;;;;;15.19;100.00;98983.48;2191522;81;20992;-87
2021/09/23 08:16:20;;;;;;;16.32;10.35;;;;;;;15.31;100.00;98985.80;2191832;81;21012;-89
2021/09/23 08:19:21;;;;;;;20.97;11.35;;;;;;;15.45;100.00;98984.77;2191000;81;21127;-88
2021/09/23 08:22:23;;;;;;;15.90;8.78;;;;;;;15.51;100.00;98973.40;2191217;81;20968;-88
2021/09/23 08:25:24;;;;;;;18.55;9.55;;;;;;;15.55;100.00;98973.83;2191367;81;20956;-90
2021/09/23 08:28:27;;;;;;;17.60;9.38;;;;;;;15.66;100.00;98975.86;2191338;81;22147;-88
2021/09/23 08:31:27;;;;;;;14.65;8.40;;;;;;;15.82;100.00;98977.26;2191700;81;21019;-90
2021/09/23 08:34:28;;;;;;;15.88;8.83;;;;;;;15.93;100.00;98973.98;2191463;81;20929;-89
2021/09/23 08:37:29;;;;;;;20.68;9.85;;;;;;;15.95;100.00;98971.94;2191816;81;21070;-92
2021/09/23 08:40:31;;;;;;;16.60;9.78;;;;;;;15.88;100.00;98973.77;2191760;81;20979;-87
2021/09/23 08:43:32;;;;;;;14.00;8.73;;;;;;;15.80;100.00;98969.52;2191404;81;21024;-88
2021/09/23 08:46:34;;;;;;;15.90;9.23;;;;;;;15.79;100.00;98966.58;2191315;81;21048;-89
2021/09/23 08:49:35;;;;;;;18.87;8.78;;;;;;;15.77;100.00;98965.17;2191887;81;21115;-88
2021/09/23 08:52:37;;;;;;;16.50;9.15;;;;;;;15.73;100.00;98963.47;2191402;81;20996;-86
2021/09/23 08:55:38;;;;;;;18.42;9.48;;;;;;;15.74;100.00;98961.12;2191399;81;21012;-85
2021/09/23 08:58:39;;;;;;;14.35;8.40;;;;;;;15.76;100.00;98964.37;2191303;81;20964;-89
2021/09/23 09:01:40;;;;;;;17.25;8.53;;;;;;;15.80;100.00;98964.75;2191295;81;21064;-87
2021/09/23 09:04:42;;;;;;;13.83;8.65;;;;;;;15.95;100.00;98964.52;2191421;81;21043;-86
2021/09/23 09:07:43;;;;;;;17.02;8.85;;;;;;;16.15;100.00;98960.78;2191215;81;21039;-88
2021/09/23 09:10:44;;;;;;;13.20;8.03;;;;;;;16.34;100.00;98965.68;2191460;81;20996;-88
2021/09/23 09:13:46;;;;;;;16.50;7.92;;;;;;;16.56;100.00;98951.66;2191204;81;21019;-87
2021/09/23 09:16:47;;;;;;;20.68;8.05;;;;;;;16.79;100.00;98947.16;2191558;81;21040;-85
2021/09/23 09:19:48;;;;;;;24.35;7.90;;;;;;;16.98;100.00;98927.70;2192534;81;20972;-86
2021/09/23 09:22:50;;;;;;;13.25;7.53;;;;;;;17.06;100.00;98924.79;2192957;81;21044;-88
2021/09/23 09:25:51;;;;;;;11.57;7.55;;;;;;;17.05;100.00;98927.14;2191961;81;20983;-91
2021/09/23 09:28:52;;;;;;;11.80;6.50;;;;;;;16.98;100.00;98917.12;2191645;81;21039;-89
2021/09/23 09:31:53;;;;;;;12.05;7.03;;;;;;;16.98;100.00;98910.50;2191471;81;21023;-89
2021/09/23 09:34:54;;;;;;;11.40;5.45;;;;;;;17.01;100.00;98909.28;2191490;81;20960;-87
2021/09/23 09:37:55;;;;;;;16.50;6.30;;;;;;;17.12;100.00;98898.50;2191217;81;21051;-90
2021/09/23 09:40:56;;;;;;;10.55;6.12;;;;;;;17.31;100.00;98898.32;2191318;81;20973;-91
2021/09/23 09:43:58;;;;;;;12.53;5.42;;;;;;;17.53;100.00;98895.24;2191369;81;21011;-91
2021/09/23 09:46:59;;;;;;;13.68;6.00;;;;;;;17.68;100.00;98891.73;2191378;81;21289;-93
2021/09/23 09:49:59;;;;;;;13.65;5.45;;;;;;;17.70;100.00;98889.70;2191364;81;21543;-90
2021/09/23 09:53:01;;;;;;;12.90;5.33;;;;;;;17.66;100.00;98894.31;2191424;81;21519;-93
2021/09/23 09:56:02;;;;;;;11.57;5.75;;;;;;;17.55;100.00;98884.72;2191424;81;20973;-87
2021/09/23 09:59:03;;;;;;;13.75;5.45;;;;;;;17.51;100.00;98875.62;2191294;81;21048;-91
2021/09/23 10:02:04;;;;;;;11.38;5.58;;;;;;;17.50;100.00;98858.13;2191423;81;20969;-88
2021/09/23 10:05:05;;;;;;;12.13;6.00;;;;;;;17.54;100.00;98863.25;2191463;81;21035;-88
2021/09/23 10:08:06;;;;;;;11.88;4.58;;;;;;;17.70;100.00;98850.49;2191092;81;20996;-88
2021/09/23 10:11:07;;;;;;;11.25;5.05;;;;;;;17.83;100.00;98840.56;2190973;81;21520;-90
2021/09/23 10:14:07;;;;;;;7.70;4.35;;;;;;;17.94;100.00;98831.05;2191426;81;20921;-88
2021/09/23 10:17:08;;;;;;;10.48;5.20;;;;;;;18.08;98.27;98830.34;2191446;81;20999;-90
2021/09/23 10:20:09;;;;;;;15.68;6.42;;;;;;;18.12;99.07;98823.58;2191400;81;20991;-88
2021/09/23 10:23:11;;;;;;;15.25;5.75;;;;;;;18.19;96.96;98817.64;2191845;81;20983;-92
2021/09/23 10:26:12;;;;;;;18.00;6.37;;;;;;;18.23;97.01;98800.79;2191481;81;20937;-86
2021/09/23 10:29:13;;;;;;;11.88;5.70;;;;;;;18.24;96.86;98802.41;2191516;81;21110;-88
2021/09/23 10:32:15;;;;;;;9.68;4.75;;;;;;;18.19;95.93;98791.95;2191663;81;20984;-87
2021/09/23 10:35:22;;;;;;;13.22;5.15;;;;;;;18.20;95.39;98794.11;2191584;81;21452;-90
2021/09/23 10:38:19;;;;;;;10.60;5.10;;;;;;;18.20;94.73;98783.51;2191606;81;21075;-87
2021/09/23 10:41:22;;;;;;;10.20;5.97;;;;;;;18.15;93.91;98770.12;2191633;81;21471;-88
2021/09/23 10:44:22;;;;;;;11.20;5.45;;;;;;;18.05;93.45;98771.19;2191488;81;21516;-88
2021/09/23 10:47:23;;;;;;;8.50;6.37;;;;;;;17.99;94.20;98762.81;2191224;81;21023;-88
2021/09/23 10:50:24;;;;;;;7.40;5.65;;;;;;;17.97;93.61;98747.15;2191427;81;21008;-87
2021/09/23 10:53:25;;;;;;;12.78;5.70;;;;;;;18.01;94.15;98749.63;2191631;81;21563;-88
2021/09/23 10:56:26;;;;;;;10.45;6.15;;;;;;;18.10;93.92;98753.56;2191478;81;20965;-87
2021/09/23 10:59:27;;;;;;;8.48;5.17;;;;;;;18.13;92.69;98757.63;2191647;81;21075;-87
2021/09/23 11:02:28;;;;;;;10.68;5.37;;;;;;;18.17;92.63;98758.25;2191368;81;21012;-88
2021/09/23 11:05:29;;;;;;;9.88;5.92;;;;;;;18.22;91.37;98754.94;2191017;81;20987;-87
2021/09/23 11:08:30;;;;;;;8.08;5.53;;;;;;;18.16;91.15;98759.28;2186767;81;21556;-88
2021/09/23 11:11:31;;;;;;;11.03;5.67;;;;;;;18.07;91.12;98760.65;2184637;81;21003;-88
2021/09/23 11:14:32;;;;;;;9.08;6.28;;;;;;;18.01;91.21;98746.16;2184369;81;21049;-88
2021/09/23 11:17:33;;;;;;;9.93;5.60;;;;;;;17.84;91.10;98757.42;2184510;81;21094;-88
2021/09/23 11:20:34;;;;;;;9.20;5.42;;;;;;;17.74;91.39;98762.94;2184604;81;20961;-87
2021/09/23 11:23:34;;;;;;;11.00;5.03;;;;;;;17.62;91.82;98747.80;2184466;81;21579;-87
2021/09/23 11:26:35;;;;;;;9.53;6.28;;;;;;;17.56;92.76;98738.13;2184302;81;20977;-87
2021/09/23 11:29:36;;;;;;;9.93;5.50;;;;;;;17.49;92.61;98739.23;2184442;81;21080;-87
2021/09/23 11:32:37;;;;;;;8.43;6.20;;;;;;;17.39;92.32;98727.05;2184436;81;20968;-87
2021/09/23 11:35:38;;;;;;;13.08;6.72;;;;;;;17.28;93.08;98716.19;2184755;81;21017;-88
2021/09/23 11:38:39;;;;;;;6.55;5.67;;;;;;;17.27;93.22;98714.54;2184172;81;21103;-88
2021/09/23 11:41:40;;;;;;;9.75;5.75;;;;;;;17.32;93.49;98715.22;2184476;81;21000;-88
2021/09/23 11:44:41;;;;;;;9.48;5.47;;;;;;;17.41;93.33;98711.75;2184504;81;21012;-87
2021/09/23 11:47:42;;;;;;;7.12;5.72;;;;;;;17.45;92.45;98704.44;2184316;81;21028;-87
2021/09/23 11:50:42;;;;;;;7.33;5.40;;;;;;;17.50;92.97;98703.27;2184416;81;21475;-87
2021/09/23 11:53:43;;;;;;;6.72;5.17;;;;;;;17.62;93.15;98706.76;2184416;81;20956;-87
2021/09/23 11:56:44;;;;;;;14.23;6.37;;;;;;;17.70;92.81;98695.08;2184483;81;21404;-88
2021/09/23 11:59:45;;;;;;;10.03;8.25;;;;;;;17.73;92.46;98689.32;2184475;81;21064;-87
2021/09/23 12:02:46;;;;;;;12.40;5.58;;;;;;;17.75;92.35;98691.77;2184458;81;20949;-87
2021/09/23 12:05:46;;;;;;;8.45;4.67;;;;;;;17.85;92.77;98685.40;2184276;81;21548;-88
2021/09/23 12:08:47;;;;;;;9.00;5.08;;;;;;;17.91;91.84;98679.17;2188798;81;21024;-87
2021/09/23 12:11:48;;;;;;;7.33;4.72;;;;;;;17.95;92.82;98676.38;2191463;81;20925;-88
2021/09/23 12:14:49;;;;;;;8.13;5.58;;;;;;;18.00;92.05;98671.19;2191341;81;21182;-88
2021/09/23 12:17:50;;;;;;;12.68;5.37;;;;;;;18.03;92.25;98663.33;2191584;81;21031;-88
2021/09/23 12:20:51;;;;;;;7.47;5.30;;;;;;;18.01;92.09;98664.85;2191481;81;21019;-87
2021/09/23 12:23:52;;;;;;;7.17;5.65;;;;;;;18.02;92.04;98648.47;2191428;81;21000;-87
2021/09/23 12:26:54;;;;;;;10.68;4.90;;;;;;;18.00;92.57;98643.38;2192550;81;20961;-88
2021/09/23 12:29:55;;;;;;;6.03;4.62;;;;;;;18.00;92.47;98634.10;2192871;81;22144;-87
2021/09/23 12:32:56;;;;;;;6.45;4.95;;;;;;;17.96;91.46;98626.86;2191428;81;20979;-88
2021/09/23 12:35:57;;;;;;;8.93;4.35;;;;;;;17.86;91.55;98619.48;2191494;81;21043;-87
2021/09/23 12:38:58;;;;;;;8.40;5.17;;;;;;;17.83;92.28;98610.64;2191431;81;20961;-88
2021/09/23 12:41:59;;;;;;;8.20;5.03;;;;;;;17.85;91.78;98611.25;2191325;81;21039;-87
2021/09/23 12:45:00;;;;;;;7.15;4.70;;;;;;;17.84;92.66;98610.96;2191449;81;21503;-88
2021/09/23 12:48:01;;;;;;;10.75;5.42;;;;;;;17.83;92.78;98602.21;2191331;81;21099;-87
2021/09/23 12:51:02;;;;;;;9.33;5.83;;;;;;;17.79;92.41;98591.77;2191566;81;21399;-88
2021/09/23 12:54:03;;;;;;;8.43;6.17;;;;;;;17.70;91.51;98581.22;2191535;81;20995;-88
2021/09/23 12:57:04;;;;;;;6.80;4.95;;;;;;;17.68;92.93;98572.68;2191388;81;20992;-88
2021/09/23 13:00:04;;;;;;;6.85;5.62;;;;;;;17.68;92.93;98572.68;2191540;81;21082;-87
2021/09/23 13:03:08;;;;;;;9.00;5.15;;;;;;;17.77;93.33;98567.37;2191549;81;21598;-88
2021/09/23 13:06:10;;;;;;;8.03;5.55;;;;;;;17.89;93.13;98564.20;2191615;81;21100;-88
2021/09/23 13:09:11;;;;;;;8.20;6.17;;;;;;;18.04;93.28;98558.97;2186297;81;21534;-87
2021/09/23 13:12:11;;;;;;;7.92;6.10;;;;;;;18.12;92.74;98555.97;2184539;81;21024;-88
2021/09/23 13:15:12;;;;;;;12.07;6.35;;;;;;;18.13;93.22;98554.41;2184573;81;20996;-87
2021/09/23 13:18:13;;;;;;;8.08;5.92;;;;;;;18.18;92.64;98559.80;2184607;81;21591;-87
2021/09/23 13:21:14;;;;;;;8.35;6.78;;;;;;;18.23;92.59;98547.72;2184612;81;20996;-87
2021/09/23 13:24:16;;;;;;;6.62;5.33;;;;;;;18.23;93.40;98551.17;2184637;81;20976;-87
2021/09/23 13:27:17;;;;;;;9.20;6.50;;;;;;;18.19;93.04;98546.84;2184452;81;21534;-88
2021/09/23 13:30:18;;;;;;;8.78;5.95;;;;;;;18.17;93.36;98535.67;2184487;81;21004;-89
2021/09/23 13:33:18;;;;;;;5.95;5.35;;;;;;;18.18;93.62;98521.38;2184298;81;21043;-88
2021/09/23 13:36:19;;;;;;;9.25;5.53;;;;;;;18.19;93.80;98522.99;2184603;81;21032;-87
2021/09/23 13:39:20;;;;;;;8.83;6.92;;;;;;;18.21;93.91;98520.66;2184647;81;20978;-87
2021/09/23 13:42:21;;;;;;;10.85;8.75;;;;;;;18.22;94.60;98522.27;2184512;81;20968;-92
2021/09/23 13:45:22;;;;;;;10.82;9.33;;;;;;;18.24;94.74;98514.36;2184745;81;20957;-89
2021/09/23 13:48:28;;;;;;;7.62;6.80;;;;;;;18.24;94.61;98509.58;2184695;81;21590;-90
2021/09/23 13:51:26;;;;;;;10.85;6.58;;;;;;;18.18;94.10;98502.84;2184679;81;21118;-91
2021/09/23 13:54:27;;;;;;;9.70;6.58;;;;;;;18.12;94.02;98497.16;2185095;81;21528;-90
2021/09/23 13:57:27;;;;;;;8.70;5.83;;;;;;;18.07;94.03;98485.13;2184274;81;20973;-90
2021/09/23 14:00:28;;;;;;;9.48;5.95;;;;;;;17.95;94.03;98484.34;2184446;81;22077;-89
2021/09/23 14:03:31;;;;;;;8.03;5.58;;;;;;;17.85;94.07;98473.02;2185042;81;21080;-87
2021/09/23 14:06:31;;;;;;;11.12;6.30;;;;;;;17.80;94.24;98468.11;2164097;79;21115;-92
2021/09/23 14:09:34;;;;;;;7.25;6.22;;;;;;;17.72;94.79;98466.62;2119059;83;21036;-91